sensor_id;sensor_type;location;lat;lon;timestamp;P1;durP1;ratioP1;P2;durP2;ratioP2
42094;SDS011;27753;55.724;37.612;2022-12-18T00:01:25;15.52;;;10.65;;
42094;SDS011;27753;55.724;37.612;2022-12-18T00:03:53;20.77;;;11.35;;
42094;SDS011;27753;55.724;37.612;2022-12-18T00:06:20;19.05;;;13.98;;
42094;SDS011;27753;55.724;37.612;2022-12-18T00:08:48;14.32;;;10.50;;
42094;SDS011;27753;55.724;37.612;2022-12-18T00:11:15;17.98;;;11.15;;
42094;SDS011;27753;55.724;37.612;2022-12-18T00:13:45;8.88;;;7.13;;
42094;SDS011;27753;55.724;37.612;2022-12-18T00:16:16;19.98;;;11.38;;
42094;SDS011;27753;55.724;37.612;2022-12-18T00:18:45;15.38;;;10.90;;
42094;SDS011;27753;55.724;37.612;2022-12-18T00:21:12;23.00;;;11.50;;
42094;SDS011;27753;55.724;37.612;2022-12-18T00:23:39;20.52;;;11.05;;
42094;SDS011;27753;55.724;37.612;2022-12-18T00:26:11;17.70;;;12.25;;
42094;SDS011;27753;55.724;37.612;2022-12-18T00:28:48;15.40;;;10.07;;
42094;SDS011;27753;55.724;37.612;2022-12-18T00:31:18;14.35;;;9.75;;
42094;SDS011;27753;55.724;37.612;2022-12-18T00:33:45;9.65;;;7.60;;
42094;SDS011;27753;55.724;37.612;2022-12-18T00:36:13;19.80;;;11.38;;
42094;SDS011;27753;55.724;37.612;2022-12-18T00:38:40;17.85;;;11.40;;
42094;SDS011;27753;55.724;37.612;2022-12-18T00:41:07;20.08;;;11.52;;
42094;SDS011;27753;55.724;37.612;2022-12-18T00:43:34;15.52;;;9.90;;
42094;SDS011;27753;55.724;37.612;2022-12-18T00:46:01;16.85;;;10.93;;
42094;SDS011;27753;55.724;37.612;2022-12-18T00:48:27;20.60;;;13.70;;
42094;SDS011;27753;55.724;37.612;2022-12-18T00:50:53;14.77;;;10.88;;
42094;SDS011;27753;55.724;37.612;2022-12-18T00:53:19;18.95;;;11.07;;
42094;SDS011;27753;55.724;37.612;2022-12-18T00:55:45;15.05;;;11.35;;
42094;SDS011;27753;55.724;37.612;2022-12-18T00:58:11;14.20;;;10.73;;
42094;SDS011;27753;55.724;37.612;2022-12-18T01:03:05;18.25;;;11.52;;
42094;SDS011;27753;55.724;37.612;2022-12-18T01:05:31;12.02;;;8.30;;
42094;SDS011;27753;55.724;37.612;2022-12-18T01:07:58;17.15;;;8.98;;
42094;SDS011;27753;55.724;37.612;2022-12-18T01:10:25;25.98;;;13.00;;
42094;SDS011;27753;55.724;37.612;2022-12-18T01:12:51;17.85;;;13.70;;
42094;SDS011;27753;55.724;37.612;2022-12-18T01:15:17;13.05;;;11.23;;
42094;SDS011;27753;55.724;37.612;2022-12-18T01:17:44;17.20;;;10.70;;
42094;SDS011;27753;55.724;37.612;2022-12-18T01:20:10;18.25;;;13.23;;
42094;SDS011;27753;55.724;37.612;2022-12-18T01:22:37;14.77;;;8.85;;
42094;SDS011;27753;55.724;37.612;2022-12-18T01:25:03;14.23;;;10.43;;
42094;SDS011;27753;55.724;37.612;2022-12-18T01:27:31;16.98;;;9.63;;
42094;SDS011;27753;55.724;37.612;2022-12-18T01:29:58;12.65;;;9.90;;
42094;SDS011;27753;55.724;37.612;2022-12-18T01:32:24;17.95;;;10.48;;
42094;SDS011;27753;55.724;37.612;2022-12-18T01:34:50;15.48;;;9.60;;
42094;SDS011;27753;55.724;37.612;2022-12-18T01:37:15;14.65;;;10.25;;
42094;SDS011;27753;55.724;37.612;2022-12-18T01:39:41;16.45;;;10.73;;
42094;SDS011;27753;55.724;37.612;2022-12-18T01:42:14;22.05;;;11.70;;
42094;SDS011;27753;55.724;37.612;2022-12-18T01:47:39;7.43;;;4.68;;
42094;SDS011;27753;55.724;37.612;2022-12-18T01:50:20;15.73;;;9.57;;
42094;SDS011;27753;55.724;37.612;2022-12-18T01:53:00;14.40;;;8.52;;
42094;SDS011;27753;55.724;37.612;2022-12-18T01:55:38;17.27;;;9.82;;
42094;SDS011;27753;55.724;37.612;2022-12-18T01:58:08;14.85;;;9.52;;
42094;SDS011;27753;55.724;37.612;2022-12-18T02:00:34;15.98;;;9.13;;
42094;SDS011;27753;55.724;37.612;2022-12-18T02:03:00;14.30;;;10.15;;
42094;SDS011;27753;55.724;37.612;2022-12-18T02:08:21;16.23;;;12.18;;
42094;SDS011;27753;55.724;37.612;2022-12-18T02:11:02;19.40;;;11.30;;
42094;SDS011;27753;55.724;37.612;2022-12-18T02:16:39;17.42;;;10.68;;
42094;SDS011;27753;55.724;37.612;2022-12-18T02:19:27;15.38;;;9.65;;
42094;SDS011;27753;55.724;37.612;2022-12-18T02:25:12;14.27;;;9.35;;
42094;SDS011;27753;55.724;37.612;2022-12-18T02:27:39;16.90;;;10.15;;
42094;SDS011;27753;55.724;37.612;2022-12-18T02:30:09;16.63;;;10.88;;
42094;SDS011;27753;55.724;37.612;2022-12-18T02:32:37;11.70;;;9.33;;
42094;SDS011;27753;55.724;37.612;2022-12-18T02:35:06;12.70;;;8.52;;
42094;SDS011;27753;55.724;37.612;2022-12-18T02:37:37;14.77;;;10.15;;
42094;SDS011;27753;55.724;37.612;2022-12-18T02:40:05;14.95;;;9.52;;
42094;SDS011;27753;55.724;37.612;2022-12-18T02:42:33;16.80;;;9.20;;
42094;SDS011;27753;55.724;37.612;2022-12-18T02:44:58;16.52;;;9.13;;
42094;SDS011;27753;55.724;37.612;2022-12-18T02:47:27;14.13;;;9.63;;
42094;SDS011;27753;55.724;37.612;2022-12-18T02:57:47;12.27;;;8.57;;
42094;SDS011;27753;55.724;37.612;2022-12-18T03:00:21;11.05;;;8.20;;
42094;SDS011;27753;55.724;37.612;2022-12-18T03:05:38;17.48;;;9.40;;
42094;SDS011;27753;55.724;37.612;2022-12-18T03:08:14;15.35;;;10.35;;
42094;SDS011;27753;55.724;37.612;2022-12-18T03:11:02;16.02;;;10.55;;
42094;SDS011;27753;55.724;37.612;2022-12-18T03:16:08;12.77;;;8.63;;
42094;SDS011;27753;55.724;37.612;2022-12-18T03:18:42;13.85;;;8.98;;
42094;SDS011;27753;55.724;37.612;2022-12-18T03:21:12;17.00;;;10.07;;
42094;SDS011;27753;55.724;37.612;2022-12-18T03:23:40;13.40;;;9.88;;
42094;SDS011;27753;55.724;37.612;2022-12-18T03:26:12;15.65;;;10.10;;
42094;SDS011;27753;55.724;37.612;2022-12-18T03:28:50;11.68;;;7.57;;
42094;SDS011;27753;55.724;37.612;2022-12-18T03:31:23;18.27;;;10.13;;
42094;SDS011;27753;55.724;37.612;2022-12-18T03:33:54;12.13;;;8.68;;
42094;SDS011;27753;55.724;37.612;2022-12-18T03:36:24;14.30;;;10.52;;
42094;SDS011;27753;55.724;37.612;2022-12-18T03:38:50;13.88;;;8.20;;
42094;SDS011;27753;55.724;37.612;2022-12-18T03:41:25;13.63;;;9.90;;
42094;SDS011;27753;55.724;37.612;2022-12-18T03:46:49;12.93;;;8.05;;
42094;SDS011;27753;55.724;37.612;2022-12-18T03:50:07;14.95;;;9.45;;
42094;SDS011;27753;55.724;37.612;2022-12-18T03:52:28;12.85;;;8.57;;
42094;SDS011;27753;55.724;37.612;2022-12-18T03:55:15;18.15;;;8.45;;
42094;SDS011;27753;55.724;37.612;2022-12-18T03:57:43;15.52;;;9.52;;
42094;SDS011;27753;55.724;37.612;2022-12-18T04:00:11;14.65;;;8.88;;
42094;SDS011;27753;55.724;37.612;2022-12-18T04:02:40;15.95;;;10.13;;
42094;SDS011;27753;55.724;37.612;2022-12-18T04:05:09;11.48;;;7.72;;
42094;SDS011;27753;55.724;37.612;2022-12-18T04:07:37;12.00;;;8.15;;
42094;SDS011;27753;55.724;37.612;2022-12-18T04:10:04;13.25;;;7.22;;
42094;SDS011;27753;55.724;37.612;2022-12-18T04:12:33;11.70;;;8.48;;
42094;SDS011;27753;55.724;37.612;2022-12-18T04:14:59;11.77;;;7.15;;
42094;SDS011;27753;55.724;37.612;2022-12-18T04:17:25;13.35;;;8.32;;
42094;SDS011;27753;55.724;37.612;2022-12-18T04:19:50;10.73;;;8.20;;
42094;SDS011;27753;55.724;37.612;2022-12-18T04:22:16;12.32;;;8.05;;
42094;SDS011;27753;55.724;37.612;2022-12-18T04:24:42;13.50;;;8.88;;
42094;SDS011;27753;55.724;37.612;2022-12-18T04:27:08;12.25;;;7.75;;
42094;SDS011;27753;55.724;37.612;2022-12-18T04:29:34;15.18;;;9.63;;
42094;SDS011;27753;55.724;37.612;2022-12-18T04:32:00;11.55;;;8.63;;
42094;SDS011;27753;55.724;37.612;2022-12-18T04:34:29;12.70;;;8.80;;
42094;SDS011;27753;55.724;37.612;2022-12-18T04:36:57;10.23;;;6.45;;
42094;SDS011;27753;55.724;37.612;2022-12-18T04:39:23;14.27;;;8.88;;
42094;SDS011;27753;55.724;37.612;2022-12-18T04:41:49;9.63;;;6.77;;
42094;SDS011;27753;55.724;37.612;2022-12-18T04:44:15;12.68;;;7.70;;
42094;SDS011;27753;55.724;37.612;2022-12-18T04:46:41;11.80;;;8.27;;
42094;SDS011;27753;55.724;37.612;2022-12-18T04:49:07;13.98;;;8.02;;
42094;SDS011;27753;55.724;37.612;2022-12-18T04:51:35;12.05;;;8.23;;
42094;SDS011;27753;55.724;37.612;2022-12-18T04:54:02;12.48;;;7.38;;
42094;SDS011;27753;55.724;37.612;2022-12-18T04:56:30;13.32;;;8.25;;
42094;SDS011;27753;55.724;37.612;2022-12-18T04:58:57;15.38;;;8.13;;
42094;SDS011;27753;55.724;37.612;2022-12-18T05:01:23;8.57;;;5.88;;
42094;SDS011;27753;55.724;37.612;2022-12-18T05:03:48;8.85;;;7.25;;
42094;SDS011;27753;55.724;37.612;2022-12-18T05:06:16;10.68;;;7.75;;
42094;SDS011;27753;55.724;37.612;2022-12-18T05:08:42;14.27;;;6.55;;
42094;SDS011;27753;55.724;37.612;2022-12-18T05:11:09;14.52;;;8.73;;
42094;SDS011;27753;55.724;37.612;2022-12-18T05:13:37;12.63;;;7.47;;
42094;SDS011;27753;55.724;37.612;2022-12-18T05:16:04;14.45;;;8.52;;
42094;SDS011;27753;55.724;37.612;2022-12-18T05:18:30;12.05;;;8.27;;
42094;SDS011;27753;55.724;37.612;2022-12-18T05:20:56;14.32;;;7.45;;
42094;SDS011;27753;55.724;37.612;2022-12-18T05:23:23;14.13;;;7.95;;
42094;SDS011;27753;55.724;37.612;2022-12-18T05:25:56;10.75;;;6.50;;
42094;SDS011;27753;55.724;37.612;2022-12-18T05:28:23;11.82;;;7.03;;
42094;SDS011;27753;55.724;37.612;2022-12-18T05:30:51;11.90;;;6.97;;
42094;SDS011;27753;55.724;37.612;2022-12-18T05:33:18;13.07;;;7.55;;
42094;SDS011;27753;55.724;37.612;2022-12-18T05:35:44;8.50;;;6.65;;
42094;SDS011;27753;55.724;37.612;2022-12-18T05:38:16;9.98;;;7.78;;
42094;SDS011;27753;55.724;37.612;2022-12-18T05:40:42;12.00;;;8.80;;
42094;SDS011;27753;55.724;37.612;2022-12-18T05:43:08;15.07;;;9.18;;
42094;SDS011;27753;55.724;37.612;2022-12-18T05:45:36;11.75;;;8.40;;
42094;SDS011;27753;55.724;37.612;2022-12-18T05:48:03;14.85;;;8.65;;
42094;SDS011;27753;55.724;37.612;2022-12-18T05:50:30;12.02;;;7.63;;
42094;SDS011;27753;55.724;37.612;2022-12-18T05:52:58;10.50;;;6.68;;
42094;SDS011;27753;55.724;37.612;2022-12-18T05:55:24;10.90;;;8.05;;
42094;SDS011;27753;55.724;37.612;2022-12-18T05:57:51;11.40;;;6.97;;
42094;SDS011;27753;55.724;37.612;2022-12-18T06:00:16;9.68;;;6.80;;
42094;SDS011;27753;55.724;37.612;2022-12-18T06:02:45;12.90;;;7.30;;
42094;SDS011;27753;55.724;37.612;2022-12-18T06:05:12;9.93;;;7.35;;
42094;SDS011;27753;55.724;37.612;2022-12-18T06:07:38;13.63;;;7.65;;
42094;SDS011;27753;55.724;37.612;2022-12-18T06:10:03;12.40;;;9.25;;
42094;SDS011;27753;55.724;37.612;2022-12-18T06:12:30;12.80;;;7.43;;
42094;SDS011;27753;55.724;37.612;2022-12-18T06:14:56;9.65;;;5.43;;
42094;SDS011;27753;55.724;37.612;2022-12-18T06:17:22;10.55;;;7.35;;
42094;SDS011;27753;55.724;37.612;2022-12-18T06:19:48;10.68;;;6.85;;
42094;SDS011;27753;55.724;37.612;2022-12-18T06:22:13;12.55;;;8.18;;
42094;SDS011;27753;55.724;37.612;2022-12-18T06:24:39;11.48;;;7.70;;
42094;SDS011;27753;55.724;37.612;2022-12-18T06:27:05;13.80;;;6.57;;
42094;SDS011;27753;55.724;37.612;2022-12-18T06:29:31;11.65;;;7.50;;
42094;SDS011;27753;55.724;37.612;2022-12-18T06:31:57;12.43;;;7.47;;
42094;SDS011;27753;55.724;37.612;2022-12-18T06:34:22;11.77;;;8.43;;
42094;SDS011;27753;55.724;37.612;2022-12-18T06:36:48;11.70;;;6.85;;
42094;SDS011;27753;55.724;37.612;2022-12-18T06:39:14;11.02;;;7.07;;
42094;SDS011;27753;55.724;37.612;2022-12-18T06:41:40;11.80;;;7.55;;
42094;SDS011;27753;55.724;37.612;2022-12-18T06:44:06;10.10;;;7.15;;
42094;SDS011;27753;55.724;37.612;2022-12-18T06:46:32;11.50;;;6.85;;
42094;SDS011;27753;55.724;37.612;2022-12-18T06:48:57;11.20;;;7.25;;
42094;SDS011;27753;55.724;37.612;2022-12-18T06:51:23;12.02;;;8.38;;
42094;SDS011;27753;55.724;37.612;2022-12-18T06:53:49;11.73;;;6.63;;
42094;SDS011;27753;55.724;37.612;2022-12-18T06:56:15;13.20;;;8.40;;
42094;SDS011;27753;55.724;37.612;2022-12-18T06:58:42;10.68;;;7.32;;
42094;SDS011;27753;55.724;37.612;2022-12-18T07:01:09;16.80;;;8.40;;
42094;SDS011;27753;55.724;37.612;2022-12-18T07:03:36;11.15;;;6.60;;
42094;SDS011;27753;55.724;37.612;2022-12-18T07:06:03;7.68;;;6.43;;
42094;SDS011;27753;55.724;37.612;2022-12-18T07:08:30;10.55;;;6.05;;
42094;SDS011;27753;55.724;37.612;2022-12-18T07:10:57;8.35;;;6.07;;
42094;SDS011;27753;55.724;37.612;2022-12-18T07:13:22;10.85;;;7.55;;
42094;SDS011;27753;55.724;37.612;2022-12-18T07:15:48;9.85;;;5.68;;
42094;SDS011;27753;55.724;37.612;2022-12-18T07:18:14;10.80;;;7.15;;
42094;SDS011;27753;55.724;37.612;2022-12-18T07:20:40;7.53;;;6.18;;
42094;SDS011;27753;55.724;37.612;2022-12-18T07:23:06;9.98;;;8.77;;
42094;SDS011;27753;55.724;37.612;2022-12-18T07:25:35;13.50;;;7.95;;
42094;SDS011;27753;55.724;37.612;2022-12-18T07:28:02;11.95;;;7.63;;
42094;SDS011;27753;55.724;37.612;2022-12-18T07:30:28;12.13;;;7.70;;
42094;SDS011;27753;55.724;37.612;2022-12-18T07:32:54;9.20;;;6.63;;
42094;SDS011;27753;55.724;37.612;2022-12-18T07:35:20;8.63;;;6.13;;
42094;SDS011;27753;55.724;37.612;2022-12-18T07:37:46;10.55;;;6.78;;
42094;SDS011;27753;55.724;37.612;2022-12-18T07:40:12;9.70;;;6.45;;
42094;SDS011;27753;55.724;37.612;2022-12-18T07:42:40;9.82;;;6.63;;
42094;SDS011;27753;55.724;37.612;2022-12-18T07:45:05;9.00;;;6.20;;
42094;SDS011;27753;55.724;37.612;2022-12-18T07:47:34;10.13;;;5.38;;
42094;SDS011;27753;55.724;37.612;2022-12-18T07:50:01;13.38;;;7.15;;
42094;SDS011;27753;55.724;37.612;2022-12-18T07:52:28;9.07;;;5.80;;
42094;SDS011;27753;55.724;37.612;2022-12-18T07:54:57;10.02;;;6.63;;
42094;SDS011;27753;55.724;37.612;2022-12-18T07:57:23;9.48;;;6.75;;
42094;SDS011;27753;55.724;37.612;2022-12-18T07:59:49;10.05;;;8.40;;
42094;SDS011;27753;55.724;37.612;2022-12-18T08:02:15;10.20;;;6.15;;
42094;SDS011;27753;55.724;37.612;2022-12-18T08:04:41;11.65;;;6.57;;
42094;SDS011;27753;55.724;37.612;2022-12-18T08:07:07;10.75;;;6.80;;
42094;SDS011;27753;55.724;37.612;2022-12-18T08:09:32;9.10;;;6.88;;
42094;SDS011;27753;55.724;37.612;2022-12-18T08:11:58;10.25;;;6.78;;
42094;SDS011;27753;55.724;37.612;2022-12-18T08:14:24;9.65;;;6.05;;
42094;SDS011;27753;55.724;37.612;2022-12-18T08:16:50;11.07;;;6.50;;
42094;SDS011;27753;55.724;37.612;2022-12-18T08:19:16;10.27;;;6.75;;
42094;SDS011;27753;55.724;37.612;2022-12-18T08:21:41;11.80;;;7.30;;
42094;SDS011;27753;55.724;37.612;2022-12-18T08:24:08;9.52;;;6.70;;
42094;SDS011;27753;55.724;37.612;2022-12-18T08:26:34;8.43;;;6.72;;
42094;SDS011;27753;55.724;37.612;2022-12-18T08:29:00;9.15;;;6.57;;
42094;SDS011;27753;55.724;37.612;2022-12-18T08:31:29;10.88;;;5.45;;
42094;SDS011;27753;55.724;37.612;2022-12-18T08:33:55;8.27;;;4.75;;
42094;SDS011;27753;55.724;37.612;2022-12-18T08:36:22;11.35;;;6.55;;
42094;SDS011;27753;55.724;37.612;2022-12-18T08:38:48;10.38;;;6.93;;
42094;SDS011;27753;55.724;37.612;2022-12-18T08:41:15;12.20;;;7.32;;
42094;SDS011;27753;55.724;37.612;2022-12-18T08:43:42;8.90;;;6.88;;
42094;SDS011;27753;55.724;37.612;2022-12-18T08:46:32;10.52;;;6.95;;
42094;SDS011;27753;55.724;37.612;2022-12-18T08:49:07;13.02;;;7.07;;
42094;SDS011;27753;55.724;37.612;2022-12-18T08:54:01;8.18;;;5.88;;
42094;SDS011;27753;55.724;37.612;2022-12-18T08:56:28;18.98;;;7.70;;
42094;SDS011;27753;55.724;37.612;2022-12-18T08:58:55;9.45;;;5.97;;
42094;SDS011;27753;55.724;37.612;2022-12-18T09:01:21;11.60;;;5.95;;
42094;SDS011;27753;55.724;37.612;2022-12-18T09:03:50;12.25;;;7.45;;
42094;SDS011;27753;55.724;37.612;2022-12-18T09:06:16;10.43;;;6.75;;
42094;SDS011;27753;55.724;37.612;2022-12-18T09:08:49;11.88;;;6.32;;
42094;SDS011;27753;55.724;37.612;2022-12-18T09:11:19;13.20;;;6.30;;
42094;SDS011;27753;55.724;37.612;2022-12-18T09:13:50;10.20;;;6.35;;
42094;SDS011;27753;55.724;37.612;2022-12-18T09:16:16;10.38;;;7.68;;
42094;SDS011;27753;55.724;37.612;2022-12-18T09:18:43;9.52;;;6.20;;
42094;SDS011;27753;55.724;37.612;2022-12-18T09:21:09;10.50;;;5.57;;
42094;SDS011;27753;55.724;37.612;2022-12-18T09:23:40;9.93;;;7.05;;
42094;SDS011;27753;55.724;37.612;2022-12-18T09:26:06;8.80;;;7.00;;
42094;SDS011;27753;55.724;37.612;2022-12-18T09:28:32;11.00;;;6.40;;
42094;SDS011;27753;55.724;37.612;2022-12-18T09:30:58;9.77;;;5.85;;
42094;SDS011;27753;55.724;37.612;2022-12-18T09:33:28;7.85;;;5.68;;
42094;SDS011;27753;55.724;37.612;2022-12-18T09:35:54;9.57;;;6.47;;
42094;SDS011;27753;55.724;37.612;2022-12-18T09:38:20;9.30;;;6.18;;
42094;SDS011;27753;55.724;37.612;2022-12-18T09:40:49;10.07;;;5.57;;
42094;SDS011;27753;55.724;37.612;2022-12-18T09:43:42;9.52;;;5.15;;
42094;SDS011;27753;55.724;37.612;2022-12-18T09:46:14;8.38;;;5.60;;
42094;SDS011;27753;55.724;37.612;2022-12-18T09:48:45;9.52;;;4.82;;
42094;SDS011;27753;55.724;37.612;2022-12-18T09:51:15;7.72;;;4.95;;
42094;SDS011;27753;55.724;37.612;2022-12-18T09:53:50;9.23;;;5.75;;
42094;SDS011;27753;55.724;37.612;2022-12-18T09:56:21;9.30;;;5.63;;
42094;SDS011;27753;55.724;37.612;2022-12-18T09:58:57;9.18;;;5.22;;
42094;SDS011;27753;55.724;37.612;2022-12-18T10:01:25;12.57;;;6.15;;
42094;SDS011;27753;55.724;37.612;2022-12-18T10:03:57;10.30;;;6.47;;
42094;SDS011;27753;55.724;37.612;2022-12-18T10:09:05;8.13;;;5.25;;
42094;SDS011;27753;55.724;37.612;2022-12-18T10:14:41;7.28;;;4.72;;
42094;SDS011;27753;55.724;37.612;2022-12-18T10:20:21;8.38;;;5.22;;
42094;SDS011;27753;55.724;37.612;2022-12-18T10:26:01;8.30;;;5.28;;
42094;SDS011;27753;55.724;37.612;2022-12-18T10:28:32;7.88;;;6.45;;
42094;SDS011;27753;55.724;37.612;2022-12-18T10:31:01;9.07;;;5.35;;
42094;SDS011;27753;55.724;37.612;2022-12-18T10:33:33;8.35;;;5.75;;
42094;SDS011;27753;55.724;37.612;2022-12-18T10:36:03;8.23;;;5.40;;
42094;SDS011;27753;55.724;37.612;2022-12-18T10:38:51;8.05;;;5.68;;
42094;SDS011;27753;55.724;37.612;2022-12-18T10:43:48;8.30;;;5.25;;
42094;SDS011;27753;55.724;37.612;2022-12-18T10:46:37;12.75;;;6.53;;
42094;SDS011;27753;55.724;37.612;2022-12-18T10:49:03;7.82;;;5.10;;
42094;SDS011;27753;55.724;37.612;2022-12-18T10:51:33;12.20;;;5.43;;
42094;SDS011;27753;55.724;37.612;2022-12-18T10:54:14;7.13;;;5.78;;
42094;SDS011;27753;55.724;37.612;2022-12-18T10:56:43;10.00;;;5.05;;
42094;SDS011;27753;55.724;37.612;2022-12-18T10:59:10;11.23;;;5.75;;
42094;SDS011;27753;55.724;37.612;2022-12-18T11:01:49;8.90;;;5.85;;
42094;SDS011;27753;55.724;37.612;2022-12-18T11:04:28;9.88;;;6.53;;
42094;SDS011;27753;55.724;37.612;2022-12-18T11:06:57;9.50;;;5.85;;
42094;SDS011;27753;55.724;37.612;2022-12-18T11:09:28;8.70;;;4.55;;
42094;SDS011;27753;55.724;37.612;2022-12-18T11:11:59;8.15;;;6.25;;
42094;SDS011;27753;55.724;37.612;2022-12-18T11:17:18;10.82;;;4.80;;
42094;SDS011;27753;55.724;37.612;2022-12-18T11:19:51;7.55;;;4.50;;
42094;SDS011;27753;55.724;37.612;2022-12-18T11:22:20;8.88;;;4.53;;
42094;SDS011;27753;55.724;37.612;2022-12-18T11:27:23;8.43;;;6.03;;
42094;SDS011;27753;55.724;37.612;2022-12-18T11:29:50;9.38;;;5.53;;
42094;SDS011;27753;55.724;37.612;2022-12-18T11:37:34;9.73;;;6.50;;
42094;SDS011;27753;55.724;37.612;2022-12-18T11:40:12;8.73;;;5.65;;
42094;SDS011;27753;55.724;37.612;2022-12-18T11:42:45;6.72;;;5.35;;
42094;SDS011;27753;55.724;37.612;2022-12-18T11:45:20;7.47;;;4.78;;
42094;SDS011;27753;55.724;37.612;2022-12-18T11:50:48;8.57;;;5.00;;
42094;SDS011;27753;55.724;37.612;2022-12-18T11:53:35;10.38;;;5.88;;
42094;SDS011;27753;55.724;37.612;2022-12-18T12:04:48;21.33;;;5.45;;
42094;SDS011;27753;55.724;37.612;2022-12-18T12:16:15;6.75;;;4.70;;
42094;SDS011;27753;55.724;37.612;2022-12-18T12:40:34;6.82;;;4.15;;
42094;SDS011;27753;55.724;37.612;2022-12-18T12:43:38;12.73;;;4.85;;
42094;SDS011;27753;55.724;37.612;2022-12-18T12:46:10;9.63;;;4.20;;
42094;SDS011;27753;55.724;37.612;2022-12-18T12:48:51;5.90;;;4.47;;
42094;SDS011;27753;55.724;37.612;2022-12-18T12:53:47;4.70;;;3.03;;
42094;SDS011;27753;55.724;37.612;2022-12-18T12:56:15;5.75;;;3.95;;
42094;SDS011;27753;55.724;37.612;2022-12-18T12:58:46;7.00;;;4.93;;
42094;SDS011;27753;55.724;37.612;2022-12-18T13:13:00;6.55;;;4.93;;
42094;SDS011;27753;55.724;37.612;2022-12-18T13:18:30;7.07;;;5.53;;
42094;SDS011;27753;55.724;37.612;2022-12-18T13:25:57;12.10;;;5.82;;
42094;SDS011;27753;55.724;37.612;2022-12-18T13:31:13;10.90;;;5.95;;
42094;SDS011;27753;55.724;37.612;2022-12-18T13:36:14;15.48;;;7.35;;
42094;SDS011;27753;55.724;37.612;2022-12-18T13:38:41;11.80;;;6.53;;
42094;SDS011;27753;55.724;37.612;2022-12-18T13:43:49;13.68;;;8.10;;
42094;SDS011;27753;55.724;37.612;2022-12-18T13:46:21;14.73;;;9.18;;
42094;SDS011;27753;55.724;37.612;2022-12-18T13:51:26;21.00;;;10.73;;
42094;SDS011;27753;55.724;37.612;2022-12-18T13:56:23;18.85;;;10.68;;
42094;SDS011;27753;55.724;37.612;2022-12-18T13:59:05;17.35;;;9.23;;
42094;SDS011;27753;55.724;37.612;2022-12-18T14:04:29;17.95;;;10.27;;
42094;SDS011;27753;55.724;37.612;2022-12-18T14:07:13;22.45;;;10.88;;
42094;SDS011;27753;55.724;37.612;2022-12-18T14:09:49;17.15;;;9.02;;
42094;SDS011;27753;55.724;37.612;2022-12-18T14:17:53;18.35;;;9.77;;
42094;SDS011;27753;55.724;37.612;2022-12-18T14:20:20;21.20;;;11.57;;
42094;SDS011;27753;55.724;37.612;2022-12-18T14:22:46;23.02;;;10.10;;
42094;SDS011;27753;55.724;37.612;2022-12-18T14:27:45;20.58;;;11.13;;
42094;SDS011;27753;55.724;37.612;2022-12-18T14:33:03;15.88;;;9.95;;
42094;SDS011;27753;55.724;37.612;2022-12-18T14:35:54;20.58;;;10.25;;
42094;SDS011;27753;55.724;37.612;2022-12-18T14:40:59;15.73;;;9.82;;
42094;SDS011;27753;55.724;37.612;2022-12-18T14:43:26;14.02;;;7.65;;
42094;SDS011;27753;55.724;37.612;2022-12-18T14:45:53;16.58;;;9.77;;
42094;SDS011;27753;55.724;37.612;2022-12-18T14:53:32;13.60;;;8.35;;
42094;SDS011;27753;55.724;37.612;2022-12-18T14:56:04;10.18;;;5.53;;
42094;SDS011;27753;55.724;37.612;2022-12-18T15:01:51;15.35;;;7.90;;
42094;SDS011;27753;55.724;37.612;2022-12-18T15:04:34;7.43;;;5.15;;
42094;SDS011;27753;55.724;37.612;2022-12-18T15:09:44;8.93;;;6.25;;
42094;SDS011;27753;55.724;37.612;2022-12-18T15:12:34;11.13;;;6.00;;
42094;SDS011;27753;55.724;37.612;2022-12-18T15:15:02;9.23;;;5.63;;
42094;SDS011;27753;55.724;37.612;2022-12-18T15:17:28;8.77;;;5.65;;
42094;SDS011;27753;55.724;37.612;2022-12-18T15:20:02;9.90;;;6.32;;
42094;SDS011;27753;55.724;37.612;2022-12-18T15:22:34;10.60;;;5.90;;
42094;SDS011;27753;55.724;37.612;2022-12-18T15:32:43;6.20;;;4.65;;
42094;SDS011;27753;55.724;37.612;2022-12-18T15:35:18;8.02;;;5.35;;
42094;SDS011;27753;55.724;37.612;2022-12-18T15:37:46;6.60;;;4.93;;
42094;SDS011;27753;55.724;37.612;2022-12-18T15:40:16;9.07;;;6.63;;
42094;SDS011;27753;55.724;37.612;2022-12-18T15:42:44;8.95;;;6.05;;
42094;SDS011;27753;55.724;37.612;2022-12-18T15:45:28;10.57;;;6.20;;
42094;SDS011;27753;55.724;37.612;2022-12-18T15:47:54;11.70;;;6.55;;
42094;SDS011;27753;55.724;37.612;2022-12-18T15:50:21;8.93;;;5.43;;
42094;SDS011;27753;55.724;37.612;2022-12-18T15:52:48;9.77;;;6.13;;
42094;SDS011;27753;55.724;37.612;2022-12-18T15:55:17;8.80;;;5.55;;
42094;SDS011;27753;55.724;37.612;2022-12-18T15:58:06;8.75;;;6.00;;
42094;SDS011;27753;55.724;37.612;2022-12-18T16:02:59;11.27;;;6.10;;
42094;SDS011;27753;55.724;37.612;2022-12-18T16:05:28;10.70;;;6.50;;
42094;SDS011;27753;55.724;37.612;2022-12-18T16:07:54;10.65;;;6.18;;
42094;SDS011;27753;55.724;37.612;2022-12-18T16:10:21;8.00;;;5.63;;
42094;SDS011;27753;55.724;37.612;2022-12-18T16:12:47;8.43;;;5.85;;
42094;SDS011;27753;55.724;37.612;2022-12-18T16:15:13;7.60;;;5.75;;
42094;SDS011;27753;55.724;37.612;2022-12-18T16:17:43;9.45;;;5.45;;
42094;SDS011;27753;55.724;37.612;2022-12-18T16:20:13;7.65;;;5.55;;
42094;SDS011;27753;55.724;37.612;2022-12-18T16:22:40;7.45;;;5.63;;
42094;SDS011;27753;55.724;37.612;2022-12-18T16:25:10;7.15;;;5.07;;
42094;SDS011;27753;55.724;37.612;2022-12-18T16:27:43;7.63;;;5.60;;
42094;SDS011;27753;55.724;37.612;2022-12-18T16:30:16;9.73;;;5.82;;
42094;SDS011;27753;55.724;37.612;2022-12-18T16:32:43;8.20;;;6.20;;
42094;SDS011;27753;55.724;37.612;2022-12-18T16:35:12;9.15;;;6.22;;
42094;SDS011;27753;55.724;37.612;2022-12-18T16:37:40;10.32;;;6.10;;
42094;SDS011;27753;55.724;37.612;2022-12-18T16:40:07;7.90;;;5.53;;
42094;SDS011;27753;55.724;37.612;2022-12-18T16:42:36;9.20;;;6.65;;
42094;SDS011;27753;55.724;37.612;2022-12-18T16:45:03;11.75;;;7.43;;
42094;SDS011;27753;55.724;37.612;2022-12-18T16:47:31;9.82;;;6.70;;
42094;SDS011;27753;55.724;37.612;2022-12-18T16:49:57;9.10;;;5.73;;
42094;SDS011;27753;55.724;37.612;2022-12-18T16:52:23;9.77;;;6.43;;
42094;SDS011;27753;55.724;37.612;2022-12-18T16:54:49;11.10;;;6.53;;
42094;SDS011;27753;55.724;37.612;2022-12-18T16:57:16;7.40;;;5.32;;
42094;SDS011;27753;55.724;37.612;2022-12-18T16:59:44;7.18;;;5.32;;
42094;SDS011;27753;55.724;37.612;2022-12-18T17:02:14;12.73;;;5.88;;
42094;SDS011;27753;55.724;37.612;2022-12-18T17:04:53;9.05;;;5.93;;
42094;SDS011;27753;55.724;37.612;2022-12-18T17:07:23;11.52;;;6.95;;
42094;SDS011;27753;55.724;37.612;2022-12-18T17:12:18;11.93;;;7.78;;
42094;SDS011;27753;55.724;37.612;2022-12-18T17:14:44;11.30;;;8.03;;
42094;SDS011;27753;55.724;37.612;2022-12-18T17:17:13;11.05;;;6.85;;
42094;SDS011;27753;55.724;37.612;2022-12-18T17:19:39;18.65;;;7.68;;
42094;SDS011;27753;55.724;37.612;2022-12-18T17:22:05;12.13;;;8.98;;
42094;SDS011;27753;55.724;37.612;2022-12-18T17:24:32;12.37;;;7.50;;
42094;SDS011;27753;55.724;37.612;2022-12-18T17:26:58;12.48;;;8.27;;
42094;SDS011;27753;55.724;37.612;2022-12-18T17:29:23;12.18;;;7.60;;
42094;SDS011;27753;55.724;37.612;2022-12-18T17:31:49;10.70;;;7.65;;